﻿<?xml version="1.0" encoding="utf-8"?><gpx creator="Garmin Desktop App" version="1.1" xsi:schemaLocation="http://www.topografix.com/GPX/1/1 http://www.topografix.com/GPX/1/1/gpx.xsd http://www.garmin.com/xmlschemas/WaypointExtension/v1 http://www8.garmin.com/xmlschemas/WaypointExtensionv1.xsd http://www.garmin.com/xmlschemas/TrackPointExtension/v1 http://www.garmin.com/xmlschemas/TrackPointExtensionv1.xsd http://www.garmin.com/xmlschemas/GpxExtensions/v3 http://www8.garmin.com/xmlschemas/GpxExtensionsv3.xsd http://www.garmin.com/xmlschemas/ActivityExtension/v1 http://www8.garmin.com/xmlschemas/ActivityExtensionv1.xsd http://www.garmin.com/xmlschemas/AdventuresExtensions/v1 http://www8.garmin.com/xmlschemas/AdventuresExtensionv1.xsd http://www.garmin.com/xmlschemas/PressureExtension/v1 http://www.garmin.com/xmlschemas/PressureExtensionv1.xsd http://www.garmin.com/xmlschemas/TripExtensions/v1 http://www.garmin.com/xmlschemas/TripExtensionsv1.xsd http://www.garmin.com/xmlschemas/TripMetaDataExtensions/v1 http://www.garmin.com/xmlschemas/TripMetaDataExtensionsv1.xsd http://www.garmin.com/xmlschemas/ViaPointTransportationModeExtensions/v1 http://www.garmin.com/xmlschemas/ViaPointTransportationModeExtensionsv1.xsd http://www.garmin.com/xmlschemas/CreationTimeExtension/v1 http://www.garmin.com/xmlschemas/CreationTimeExtensionsv1.xsd http://www.garmin.com/xmlschemas/AccelerationExtension/v1 http://www.garmin.com/xmlschemas/AccelerationExtensionv1.xsd http://www.garmin.com/xmlschemas/PowerExtension/v1 http://www.garmin.com/xmlschemas/PowerExtensionv1.xsd http://www.garmin.com/xmlschemas/VideoExtension/v1 http://www.garmin.com/xmlschemas/VideoExtensionv1.xsd" xmlns="http://www.topografix.com/GPX/1/1" xmlns:xsi="http://www.w3.org/2001/XMLSchema-instance" xmlns:wptx1="http://www.garmin.com/xmlschemas/WaypointExtension/v1" xmlns:gpxtrx="http://www.garmin.com/xmlschemas/GpxExtensions/v3" xmlns:gpxtpx="http://www.garmin.com/xmlschemas/TrackPointExtension/v1" xmlns:gpxx="http://www.garmin.com/xmlschemas/GpxExtensions/v3" xmlns:trp="http://www.garmin.com/xmlschemas/TripExtensions/v1" xmlns:adv="http://www.garmin.com/xmlschemas/AdventuresExtensions/v1" xmlns:prs="http://www.garmin.com/xmlschemas/PressureExtension/v1" xmlns:tmd="http://www.garmin.com/xmlschemas/TripMetaDataExtensions/v1" xmlns:vptm="http://www.garmin.com/xmlschemas/ViaPointTransportationModeExtensions/v1" xmlns:ctx="http://www.garmin.com/xmlschemas/CreationTimeExtension/v1" xmlns:gpxacc="http://www.garmin.com/xmlschemas/AccelerationExtension/v1" xmlns:gpxpx="http://www.garmin.com/xmlschemas/PowerExtension/v1" xmlns:vidx1="http://www.garmin.com/xmlschemas/VideoExtension/v1">

  <metadata>
    <link href="http://www.garmin.com">
      <text>Garmin International</text>
    </link>
    <time>2022-02-28T07:42:34Z</time>
    <bounds maxlat="51.22253623791039" maxlon="4.907380007207394" minlat="51.190361129119992" minlon="4.845528183504939" />
  </metadata>

  <trk>
    <name>lichtaart 16 km</name>
    <extensions>
      <gpxx:TrackExtension>
        <gpxx:DisplayColor>Red</gpxx:DisplayColor>
      </gpxx:TrackExtension>
    </extensions>
    <trkseg>
      <trkpt lat="51.205639662221074" lon="4.897391963750124">
        <ele>15.063000000000001</ele>
        <time>2021-02-21T21:59:38Z</time>
      </trkpt>
      <trkpt lat="51.204773979261518" lon="4.897342175245285">
        <ele>16.082000000000001</ele>
        <time>2021-02-21T21:59:58Z</time>
      </trkpt>
      <trkpt lat="51.204909095540643" lon="4.89930228330195">
        <ele>15.054</ele>
        <time>2021-02-21T22:00:18Z</time>
      </trkpt>
      <trkpt lat="51.203991025686264" lon="4.899845933541656">
        <ele>14.098000000000001</ele>
        <time>2021-02-21T22:00:38Z</time>
      </trkpt>
      <trkpt lat="51.203972166404128" lon="4.900278942659497">
        <ele>18.061</ele>
        <time>2021-02-21T22:00:58Z</time>
      </trkpt>
      <trkpt lat="51.202097050845623" lon="4.900591503828764">
        <ele>15.093999999999999</ele>
        <time>2021-02-21T22:01:18Z</time>
      </trkpt>
      <trkpt lat="51.201809551566839" lon="4.900663755834103">
        <ele>15.012</ele>
        <time>2021-02-21T22:01:38Z</time>
      </trkpt>
      <trkpt lat="51.201036823913455" lon="4.90088302642107">
        <ele>18.042999999999999</ele>
        <time>2021-02-21T22:01:58Z</time>
      </trkpt>
      <trkpt lat="51.200904725119472" lon="4.900188250467181">
        <ele>16.064</ele>
        <time>2021-02-21T22:02:18Z</time>
      </trkpt>
      <trkpt lat="51.201100023463368" lon="4.898389996960759">
        <ele>18.010000000000002</ele>
        <time>2021-02-21T22:02:38Z</time>
      </trkpt>
      <trkpt lat="51.200439445674419" lon="4.896714789792895">
        <ele>19.007999999999999</ele>
        <time>2021-02-21T22:02:58Z</time>
      </trkpt>
      <trkpt lat="51.199379973113537" lon="4.896840015426278">
        <ele>16.015999999999998</ele>
        <time>2021-02-21T22:03:18Z</time>
      </trkpt>
      <trkpt lat="51.199041092768312" lon="4.896513372659683">
        <ele>16.079999999999998</ele>
        <time>2021-02-21T22:03:38Z</time>
      </trkpt>
      <trkpt lat="51.198802124708891" lon="4.895588764920831">
        <ele>16.039000000000001</ele>
        <time>2021-02-21T22:03:58Z</time>
      </trkpt>
      <trkpt lat="51.197279971092939" lon="4.88784003071487">
        <ele>17.021000000000001</ele>
        <time>2021-02-21T22:04:18Z</time>
      </trkpt>
      <trkpt lat="51.196449995040894" lon="4.881779998540878">
        <ele>14.055</ele>
        <time>2021-02-21T22:04:38Z</time>
      </trkpt>
      <trkpt lat="51.196507662534714" lon="4.879238102585077">
        <ele>19.097999999999999</ele>
        <time>2021-02-21T22:04:58Z</time>
      </trkpt>
      <trkpt lat="51.19526001624763" lon="4.876639964058995">
        <ele>16.041</ele>
        <time>2021-02-21T22:05:18Z</time>
      </trkpt>
      <trkpt lat="51.195117942988873" lon="4.87468714825809">
        <ele>18.068999999999999</ele>
        <time>2021-02-21T22:05:38Z</time>
      </trkpt>
      <trkpt lat="51.195814730599523" lon="4.872467368841171">
        <ele>18.097000000000001</ele>
        <time>2021-02-21T22:05:58Z</time>
      </trkpt>
      <trkpt lat="51.19438000023365" lon="4.869439993053675">
        <ele>20.023</ele>
        <time>2021-02-21T22:06:18Z</time>
      </trkpt>
      <trkpt lat="51.193469977006316" lon="4.865869972854853">
        <ele>22.024999999999999</ele>
        <time>2021-02-21T22:06:38Z</time>
      </trkpt>
      <trkpt lat="51.19306999258697" lon="4.863030016422272">
        <ele>18.007999999999999</ele>
        <time>2021-02-21T22:06:58Z</time>
      </trkpt>
      <trkpt lat="51.192460041493177" lon="4.861420020461083">
        <ele>15.010999999999999</ele>
        <time>2021-02-21T22:07:18Z</time>
      </trkpt>
      <trkpt lat="51.192270023748279" lon="4.860240016132593">
        <ele>15.095000000000001</ele>
        <time>2021-02-21T22:07:38Z</time>
      </trkpt>
      <trkpt lat="51.192129962146282" lon="4.859819998964667">
        <ele>15.044</ele>
        <time>2021-02-21T22:07:58Z</time>
      </trkpt>
      <trkpt lat="51.191669963300228" lon="4.856809973716736">
        <ele>10.066000000000001</ele>
        <time>2021-02-21T22:08:18Z</time>
      </trkpt>
      <trkpt lat="51.190990023314953" lon="4.855619994923472">
        <ele>12.01</ele>
        <time>2021-02-21T22:08:38Z</time>
      </trkpt>
      <trkpt lat="51.190709983929992" lon="4.854839975014329">
        <ele>13.083</ele>
        <time>2021-02-21T22:08:58Z</time>
      </trkpt>
      <trkpt lat="51.190639995038509" lon="4.854650041088462">
        <ele>13.036</ele>
        <time>2021-02-21T22:09:18Z</time>
      </trkpt>
      <trkpt lat="51.190361129119992" lon="4.852460268884897">
        <ele>13.013999999999999</ele>
        <time>2021-02-21T22:09:38Z</time>
      </trkpt>
      <trkpt lat="51.192442523315549" lon="4.851634651422501">
        <ele>24.055</ele>
        <time>2021-02-21T22:09:58Z</time>
      </trkpt>
      <trkpt lat="51.192395417019725" lon="4.850764274597168">
        <ele>24.007000000000001</ele>
        <time>2021-02-21T22:10:18Z</time>
      </trkpt>
      <trkpt lat="51.192351663485169" lon="4.848719844594598">
        <ele>21.016999999999999</ele>
        <time>2021-02-21T22:10:38Z</time>
      </trkpt>
      <trkpt lat="51.192024685442448" lon="4.845528183504939">
        <ele>21.007999999999999</ele>
        <time>2021-02-21T22:10:58Z</time>
      </trkpt>
      <trkpt lat="51.192735219374299" lon="4.847018318250775">
        <ele>21.087</ele>
        <time>2021-02-21T22:11:18Z</time>
      </trkpt>
      <trkpt lat="51.192999333143234" lon="4.848377527669072">
        <ele>21.041</ele>
        <time>2021-02-21T22:11:38Z</time>
      </trkpt>
      <trkpt lat="51.193395378068089" lon="4.848206369206309">
        <ele>30.030000000000001</ele>
        <time>2021-02-21T22:11:58Z</time>
      </trkpt>
      <trkpt lat="51.198580004274845" lon="4.855599962174892">
        <ele>34.072000000000003</ele>
        <time>2021-02-21T22:12:18Z</time>
      </trkpt>
      <trkpt lat="51.201739981770515" lon="4.85991002060473">
        <ele>35.026000000000003</ele>
        <time>2021-02-21T22:12:38Z</time>
      </trkpt>
      <trkpt lat="51.203570002689958" lon="4.860969996079803">
        <ele>34.058999999999997</ele>
        <time>2021-02-21T22:12:58Z</time>
      </trkpt>
      <trkpt lat="51.204139972105622" lon="4.861750015988946">
        <ele>34.052</ele>
        <time>2021-02-21T22:13:18Z</time>
      </trkpt>
      <trkpt lat="51.204829970374703" lon="4.862579992040992">
        <ele>33.049999999999997</ele>
        <time>2021-02-21T22:13:38Z</time>
      </trkpt>
      <trkpt lat="51.204910017549992" lon="4.862579992040992">
        <ele>33.088000000000001</ele>
        <time>2021-02-21T22:13:58Z</time>
      </trkpt>
      <trkpt lat="51.205479986965656" lon="4.863669974729419">
        <ele>29.024000000000001</ele>
        <time>2021-02-21T22:14:18Z</time>
      </trkpt>
      <trkpt lat="51.20679996907711" lon="4.865959994494915">
        <ele>30.026</ele>
        <time>2021-02-21T22:14:38Z</time>
      </trkpt>
      <trkpt lat="51.20856000110507" lon="4.869909966364503">
        <ele>25.007999999999999</ele>
        <time>2021-02-21T22:14:58Z</time>
      </trkpt>
      <trkpt lat="51.209709998220205" lon="4.872339963912964">
        <ele>20.059999999999999</ele>
        <time>2021-02-21T22:15:18Z</time>
      </trkpt>
      <trkpt lat="51.212231274694204" lon="4.875544281676412">
        <ele>25.094000000000001</ele>
        <time>2021-02-21T22:15:38Z</time>
      </trkpt>
      <trkpt lat="51.212621117010713" lon="4.877556022256613">
        <ele>25.033000000000001</ele>
        <time>2021-02-21T22:15:58Z</time>
      </trkpt>
      <trkpt lat="51.213127300143242" lon="4.881331901997328">
        <ele>28.035</ele>
        <time>2021-02-21T22:16:18Z</time>
      </trkpt>
      <trkpt lat="51.213747141882777" lon="4.882566723972559">
        <ele>32.098999999999997</ele>
        <time>2021-02-21T22:16:38Z</time>
      </trkpt>
      <trkpt lat="51.214905939996243" lon="4.880941975861788">
        <ele>32.012</ele>
        <time>2021-02-21T22:16:58Z</time>
      </trkpt>
      <trkpt lat="51.214809967204928" lon="4.880959996953607">
        <ele>27.029</ele>
        <time>2021-02-21T22:28:58Z</time>
      </trkpt>
      <trkpt lat="51.215780004858971" lon="4.880630001425743">
        <ele>26.062000000000001</ele>
        <time>2021-02-21T22:29:18Z</time>
      </trkpt>
      <trkpt lat="51.215940015390515" lon="4.881849987432361">
        <ele>29.09</ele>
        <time>2021-02-21T22:29:38Z</time>
      </trkpt>
      <trkpt lat="51.214350052177906" lon="4.884620038792491">
        <ele>29.058</ele>
        <time>2021-02-21T22:29:58Z</time>
      </trkpt>
      <trkpt lat="51.216236567124724" lon="4.888302627950907">
        <ele>30.052</ele>
        <time>2021-02-21T22:30:18Z</time>
      </trkpt>
      <trkpt lat="51.217440040782094" lon="4.887060010805726">
        <ele>27.016999999999999</ele>
        <time>2021-02-21T22:30:38Z</time>
      </trkpt>
      <trkpt lat="51.218163399025798" lon="4.886288037523627">
        <ele>28.007999999999999</ele>
        <time>2021-02-21T22:30:58Z</time>
      </trkpt>
      <trkpt lat="51.218661954626441" lon="4.88747944124043">
        <ele>27.087</ele>
        <time>2021-02-21T22:31:18Z</time>
      </trkpt>
      <trkpt lat="51.219650013372302" lon="4.887269977480173">
        <ele>25.030999999999999</ele>
        <time>2021-02-21T22:31:38Z</time>
      </trkpt>
      <trkpt lat="51.220630025491118" lon="4.887380031868815">
        <ele>25.02</ele>
        <time>2021-02-21T22:31:58Z</time>
      </trkpt>
      <trkpt lat="51.221230002120137" lon="4.887129999697208">
        <ele>25.082000000000001</ele>
        <time>2021-02-21T22:32:18Z</time>
      </trkpt>
      <trkpt lat="51.221269983798265" lon="4.886990021914244">
        <ele>27.026</ele>
        <time>2021-02-21T22:32:38Z</time>
      </trkpt>
      <trkpt lat="51.221230002120137" lon="4.887129999697208">
        <ele>25.099</ele>
        <time>2021-02-21T22:32:58Z</time>
      </trkpt>
      <trkpt lat="51.220972761511803" lon="4.888605969026685">
        <ele>24.091999999999999</ele>
        <time>2021-02-21T22:33:18Z</time>
      </trkpt>
      <trkpt lat="51.218641670420766" lon="4.892223598435521">
        <ele>24.09</ele>
        <time>2021-02-21T22:33:38Z</time>
      </trkpt>
      <trkpt lat="51.220110766589642" lon="4.894388811662793">
        <ele>25.045999999999999</ele>
        <time>2021-02-21T22:33:58Z</time>
      </trkpt>
      <trkpt lat="51.22087880037725" lon="4.89345733076334">
        <ele>25.088000000000001</ele>
        <time>2021-02-21T22:34:18Z</time>
      </trkpt>
      <trkpt lat="51.221687318757176" lon="4.894973700866103">
        <ele>25.015999999999998</ele>
        <time>2021-02-21T22:34:38Z</time>
      </trkpt>
      <trkpt lat="51.221660329028964" lon="4.89740839228034">
        <ele>24.059999999999999</ele>
        <time>2021-02-21T22:35:38Z</time>
      </trkpt>
      <trkpt lat="51.221566032618284" lon="4.897819943726063">
        <ele>24.041</ele>
        <time>2021-02-21T22:36:18Z</time>
      </trkpt>
      <trkpt lat="51.220595827326179" lon="4.898547995835543">
        <ele>23.085000000000001</ele>
        <time>2021-02-21T22:36:38Z</time>
      </trkpt>
      <trkpt lat="51.220986591652036" lon="4.900237703695893">
        <ele>22.027999999999999</ele>
        <time>2021-02-21T22:36:58Z</time>
      </trkpt>
      <trkpt lat="51.221552537754178" lon="4.902468966320157">
        <ele>25.061</ele>
        <time>2021-02-21T22:37:18Z</time>
      </trkpt>
      <trkpt lat="51.222253264859319" lon="4.90507691167295">
        <ele>24.059000000000001</ele>
        <time>2021-02-21T22:37:58Z</time>
      </trkpt>
      <trkpt lat="51.22253623791039" lon="4.906268399208784">
        <ele>24.003</ele>
        <time>2021-02-21T22:38:18Z</time>
      </trkpt>
      <trkpt lat="51.222145389765501" lon="4.906398318707943">
        <ele>26.023</ele>
        <time>2021-02-21T22:38:38Z</time>
      </trkpt>
      <trkpt lat="51.221350450068712" lon="4.905315209180117">
        <ele>27.007999999999999</ele>
        <time>2021-02-21T22:38:58Z</time>
      </trkpt>
      <trkpt lat="51.220475379377604" lon="4.905537329614162">
        <ele>32.017000000000003</ele>
        <time>2021-02-21T22:39:18Z</time>
      </trkpt>
      <trkpt lat="51.217810017988086" lon="4.906669976189733">
        <ele>34.030999999999999</ele>
        <time>2021-02-21T22:39:38Z</time>
      </trkpt>
      <trkpt lat="51.216249978169799" lon="4.907089993357658">
        <ele>33.079999999999998</ele>
        <time>2021-02-21T22:39:58Z</time>
      </trkpt>
      <trkpt lat="51.215940015390515" lon="4.907380007207394">
        <ele>34.061999999999998</ele>
        <time>2021-02-21T22:40:18Z</time>
      </trkpt>
      <trkpt lat="51.215448500588536" lon="4.90228246897459">
        <ele>34.076000000000001</ele>
        <time>2021-02-21T22:40:38Z</time>
      </trkpt>
      <trkpt lat="51.215009959414601" lon="4.900580020621419">
        <ele>35.079000000000001</ele>
        <time>2021-02-21T22:40:58Z</time>
      </trkpt>
      <trkpt lat="51.212990004569292" lon="4.901800006628037">
        <ele>36.082000000000001</ele>
        <time>2021-02-21T22:41:18Z</time>
      </trkpt>
      <trkpt lat="51.21163590811193" lon="4.90042470395565">
        <ele>39.079999999999998</ele>
        <time>2021-02-21T22:41:38Z</time>
      </trkpt>
      <trkpt lat="51.210027588531375" lon="4.902260843664408">
        <ele>26.062999999999999</ele>
        <time>2021-02-21T22:41:58Z</time>
      </trkpt>
      <trkpt lat="51.20946642011404" lon="4.902915889397264">
        <ele>17.044</ele>
        <time>2021-02-21T22:42:18Z</time>
      </trkpt>
      <trkpt lat="51.208940958604217" lon="4.901139596477151">
        <ele>23.018000000000001</ele>
        <time>2021-02-21T22:42:38Z</time>
      </trkpt>
      <trkpt lat="51.20717572979629" lon="4.901377810165286">
        <ele>22.007999999999999</ele>
        <time>2021-02-21T22:42:58Z</time>
      </trkpt>
      <trkpt lat="51.206475086510181" lon="4.896568777039647">
        <ele>21.038</ele>
        <time>2021-02-21T22:43:18Z</time>
      </trkpt>
      <trkpt lat="51.205868739634752" lon="4.897066997364163">
        <ele>17.071999999999999</ele>
        <time>2021-02-21T22:43:38Z</time>
      </trkpt>
    </trkseg>
  </trk>

</gpx>